createdAt,value
2022-09-06T00:01:45.145Z,21.10
2022-09-06T00:07:47.024Z,21.00
2022-09-06T00:13:49.088Z,21.10
2022-09-06T00:19:50.877Z,21.10
2022-09-06T00:25:52.662Z,21.20
2022-09-06T00:31:54.428Z,21.10
2022-09-06T00:37:58.394Z,21.10
2022-09-06T00:44:00.217Z,21.10
2022-09-06T00:50:03.404Z,21.10
2022-09-06T00:56:05.919Z,21.10
2022-09-06T01:02:09.411Z,21.10
2022-09-06T01:08:26.567Z,21.10
2022-09-06T01:14:59.141Z,21.20
2022-09-06T01:21:38.365Z,21.20
2022-09-06T01:28:21.901Z,21.20
2022-09-06T01:34:37.779Z,21.20
2022-09-06T01:40:39.522Z,21.20
2022-09-06T01:46:50.380Z,21.20
2022-09-06T01:53:04.384Z,21.10
2022-09-06T01:59:35.179Z,21.00
2022-09-06T02:05:44.542Z,20.60
2022-09-06T02:11:51.936Z,20.50
2022-09-06T02:18:04.667Z,20.50
2022-09-06T02:24:10.638Z,20.50
2022-09-06T02:30:12.807Z,20.40
2022-09-06T02:36:15.957Z,20.40
2022-09-06T02:42:19.000Z,20.20
2022-09-06T02:48:20.761Z,20.10
2022-09-06T02:54:22.871Z,20.10
2022-09-06T03:00:25.663Z,20.10
2022-09-06T03:06:27.501Z,20.10
2022-09-06T03:12:29.391Z,20.00
2022-09-06T03:18:32.318Z,20.00
2022-09-06T03:24:34.060Z,20.00
2022-09-06T03:30:37.240Z,19.90
2022-09-06T03:36:39.097Z,19.90
2022-09-06T03:42:41.000Z,19.90
2022-09-06T03:48:42.739Z,20.00
2022-09-06T03:54:44.515Z,19.90
2022-09-06T04:00:46.413Z,19.90
2022-09-06T04:06:48.178Z,19.90
2022-09-06T04:12:50.106Z,19.70
2022-09-06T04:18:52.017Z,19.60
2022-09-06T04:24:53.798Z,19.60
2022-09-06T04:31:04.360Z,19.70
2022-09-06T04:37:06.798Z,19.40
2022-09-06T04:43:08.581Z,19.30
2022-09-06T04:49:10.546Z,19.50
2022-09-06T04:55:12.379Z,19.50
2022-09-06T05:01:14.503Z,19.50
2022-09-06T05:07:16.434Z,19.50
2022-09-06T05:13:18.235Z,19.40
2022-09-06T05:19:20.391Z,19.40
2022-09-06T05:25:22.174Z,19.50
2022-09-06T05:31:29.758Z,19.60
2022-09-06T05:37:31.651Z,19.70
2022-09-06T05:43:33.468Z,19.60
2022-09-06T05:49:35.208Z,19.40
2022-09-06T05:55:41.117Z,19.40
2022-09-06T06:01:52.405Z,19.40
2022-09-06T06:07:55.649Z,19.50
2022-09-06T06:13:58.891Z,19.60
2022-09-06T06:20:00.650Z,19.60
2022-09-06T06:26:02.566Z,19.70
2022-09-06T06:32:04.513Z,19.60
2022-09-06T06:38:06.384Z,19.60
2022-09-06T06:44:08.099Z,19.70
2022-09-06T06:50:10.393Z,19.80
2022-09-06T06:56:16.690Z,19.80
2022-09-06T07:02:19.003Z,19.90
2022-09-06T07:08:20.915Z,20.00
2022-09-06T07:14:22.748Z,20.10
2022-09-06T07:20:28.013Z,20.10
2022-09-06T07:26:30.834Z,20.00
2022-09-06T07:32:34.945Z,20.00
2022-09-06T07:38:37.161Z,20.10
2022-09-06T07:44:38.896Z,20.20
2022-09-06T07:50:49.162Z,20.20
2022-09-06T07:56:51.757Z,20.30
2022-09-06T08:02:53.648Z,20.30
2022-09-06T08:15:03.373Z,20.40
2022-09-06T08:21:15.675Z,20.30
2022-09-06T08:27:17.510Z,20.30
2022-09-06T08:33:21.916Z,20.20
2022-09-06T08:39:23.774Z,20.10
2022-09-06T08:45:25.867Z,19.90
2022-09-06T08:51:40.921Z,19.80
2022-09-06T08:58:06.604Z,19.90
2022-09-06T09:04:15.278Z,19.90
2022-09-06T09:10:32.592Z,20.00
2022-09-06T09:16:34.849Z,20.20
2022-09-06T09:22:37.687Z,20.20
2022-09-06T09:28:39.630Z,20.40
2022-09-06T09:34:41.490Z,20.70
2022-09-06T09:40:50.576Z,20.90
2022-09-06T09:46:52.439Z,21.10
2022-09-06T09:52:54.757Z,21.80
2022-09-06T09:58:58.302Z,22.40
2022-09-06T10:05:20.979Z,22.90
2022-09-06T10:11:41.522Z,23.20
2022-09-06T10:17:52.111Z,23.60
2022-09-06T10:24:27.327Z,23.90
2022-09-06T10:30:32.306Z,23.90
2022-09-06T10:36:51.935Z,24.20
2022-09-06T10:42:58.145Z,24.50
2022-09-06T10:48:59.974Z,24.60
2022-09-06T10:55:04.319Z,24.90
2022-09-06T11:01:12.369Z,25.00
2022-09-06T11:07:30.293Z,25.20
2022-09-06T11:13:32.676Z,25.50
2022-09-06T11:19:55.634Z,25.40
2022-09-06T11:26:06.035Z,25.50
2022-09-06T11:32:39.880Z,25.90
2022-09-06T11:38:42.824Z,26.00
2022-09-06T11:44:53.112Z,25.90
2022-09-06T11:50:54.964Z,26.10
2022-09-06T11:57:16.112Z,26.30
2022-09-06T12:04:05.630Z,26.30
2022-09-06T12:10:30.304Z,26.60
2022-09-06T12:17:07.179Z,26.60
2022-09-06T12:23:09.091Z,26.70
2022-09-06T12:29:11.586Z,26.80
2022-09-06T12:41:47.423Z,26.90
2022-09-06T12:47:49.675Z,26.80
2022-09-06T12:54:00.293Z,26.70
2022-09-06T13:00:02.324Z,27.00
2022-09-06T13:06:06.372Z,27.00
2022-09-06T13:12:32.026Z,27.00
2022-09-06T13:18:38.298Z,27.10
2022-09-06T13:24:47.780Z,27.30
2022-09-06T13:31:03.755Z,27.50
2022-09-06T13:37:08.950Z,27.10
2022-09-06T13:43:13.962Z,27.20
2022-09-06T13:49:15.795Z,27.20
2022-09-06T13:55:20.519Z,27.20
2022-09-06T14:01:22.429Z,27.10
2022-09-06T14:07:24.277Z,27.10
2022-09-06T14:13:26.244Z,27.00
2022-09-06T14:19:28.872Z,26.90
2022-09-06T14:25:31.153Z,26.80
2022-09-06T14:31:33.053Z,26.90
2022-09-06T14:37:35.163Z,26.90
2022-09-06T14:43:37.653Z,27.00
2022-09-06T14:49:39.394Z,27.10
2022-09-06T14:55:42.628Z,27.10
2022-09-06T15:01:44.600Z,27.10
2022-09-06T15:07:46.676Z,27.00
2022-09-06T15:13:48.513Z,27.20
2022-09-06T15:19:50.775Z,27.10
2022-09-06T15:25:53.520Z,27.00
2022-09-06T15:31:57.389Z,27.10
2022-09-06T15:37:59.305Z,27.20
2022-09-06T15:44:05.594Z,27.10
2022-09-06T15:50:08.106Z,27.10
2022-09-06T15:56:13.802Z,27.20
2022-09-06T16:02:15.840Z,27.20
2022-09-06T16:08:17.723Z,27.10
2022-09-06T16:14:19.702Z,27.00
2022-09-06T16:20:21.462Z,27.10
2022-09-06T16:26:24.848Z,26.90
2022-09-06T16:32:27.249Z,26.80
2022-09-06T16:38:32.901Z,26.70
2022-09-06T16:44:35.067Z,26.50
2022-09-06T16:50:37.178Z,26.30
2022-09-06T16:56:40.025Z,26.10
2022-09-06T17:02:46.992Z,25.90
2022-09-06T17:08:49.163Z,25.70
2022-09-06T17:14:51.170Z,25.60
2022-09-06T17:21:05.159Z,25.40
2022-09-06T17:27:07.871Z,25.30
2022-09-06T17:33:10.185Z,25.20
2022-09-06T17:39:18.272Z,25.00
2022-09-06T17:45:21.985Z,24.90
2022-09-06T17:51:25.098Z,24.80
2022-09-06T17:57:27.061Z,24.60
2022-09-06T18:03:31.091Z,24.50
2022-09-06T18:09:33.008Z,24.30
2022-09-06T18:15:39.965Z,24.30
2022-09-06T18:21:42.088Z,24.10
2022-09-06T18:27:44.040Z,23.80
2022-09-06T18:33:45.907Z,23.60
2022-09-06T18:39:47.840Z,23.60
2022-09-06T18:45:50.852Z,23.60
2022-09-06T18:51:53.095Z,23.30
2022-09-06T18:57:56.899Z,23.10
2022-09-06T19:04:00.069Z,23.00
2022-09-06T19:10:02.267Z,22.90
2022-09-06T19:16:06.101Z,22.80
2022-09-06T19:22:08.118Z,22.60
2022-09-06T19:28:10.263Z,22.40
2022-09-06T19:34:13.588Z,22.30
2022-09-06T19:40:15.513Z,22.30
2022-09-06T19:46:17.472Z,22.20
2022-09-06T19:52:19.454Z,22.30
2022-09-06T19:58:21.246Z,22.20
2022-09-06T20:04:23.391Z,22.10
2022-09-06T20:10:25.716Z,22.00
2022-09-06T20:16:28.461Z,21.90
2022-09-06T20:22:31.194Z,21.90
2022-09-06T20:28:34.267Z,22.00
2022-09-06T20:34:36.189Z,21.80
2022-09-06T20:40:37.909Z,21.80
2022-09-06T20:46:39.965Z,21.80
2022-09-06T20:52:42.077Z,21.80
2022-09-06T20:58:52.724Z,22.00
2022-09-06T21:04:54.686Z,21.90
2022-09-06T21:11:04.179Z,21.80
2022-09-06T21:17:06.122Z,21.70
2022-09-06T21:23:08.182Z,21.90
2022-09-06T21:29:10.364Z,22.00
2022-09-06T21:35:12.130Z,22.00
2022-09-06T21:41:15.319Z,21.90
2022-09-06T21:47:17.159Z,21.80
2022-09-06T21:53:19.839Z,21.70
2022-09-06T21:59:21.637Z,21.70
2022-09-06T22:05:23.469Z,21.70
2022-09-06T22:11:27.922Z,21.70
2022-09-06T22:17:29.696Z,21.70
2022-09-06T22:23:31.481Z,21.70
2022-09-06T22:29:33.279Z,21.70
2022-09-06T22:35:35.112Z,21.60
2022-09-06T22:41:37.271Z,21.60
2022-09-06T22:47:39.108Z,21.80
2022-09-06T22:53:41.071Z,21.80
2022-09-06T22:59:43.075Z,21.70
2022-09-06T23:05:45.005Z,21.70
2022-09-06T23:11:46.791Z,21.60
2022-09-06T23:17:49.202Z,21.60
2022-09-06T23:23:52.201Z,21.50
2022-09-06T23:29:54.067Z,21.50
2022-09-06T23:35:56.279Z,21.50
2022-09-06T23:41:58.371Z,21.30
2022-09-06T23:48:00.319Z,21.10
2022-09-06T23:54:03.867Z,21.00
